Time;durP1;ratioP1;P1;durP2;ratioP2;P2;SDS_P1;SDS_P2;PMS_P1;PMS_P2;Temp;Humidity;BMP_temperature;BMP_pressure;BME280_temperature;BME280_humidity;BME280_pressure;Samples;Min_cycle;Max_cycle;Signal;HPM_P1;HPM_P2
2022/05/11 00:00:07;;;;;;;8.45;2.95;;;;;;;18.93;69.93;100979.94;5085157;28;20119;-72
2022/05/11 00:02:33;;;;;;;7.45;2.97;;;;;;;18.98;70.62;100977.34;5072882;28;20372;-74
2022/05/11 00:05:00;;;;;;;8.45;3.47;;;;;;;18.92;71.57;100972.72;5080147;28;20052;-73
2022/05/11 00:07:27;;;;;;;14.02;3.67;;;;;;;18.90;71.13;100961.97;5085783;28;20094;-72
2022/05/11 00:09:53;;;;;;;8.65;3.08;;;;;;;18.90;70.29;100969.59;5081606;28;20155;-73
2022/05/11 00:12:20;;;;;;;6.13;3.10;;;;;;;18.90;69.66;100966.81;5081213;28;20064;-73
2022/05/11 00:14:46;;;;;;;9.30;2.90;;;;;;;18.85;69.60;100944.91;5081424;28;20441;-72
2022/05/11 00:17:13;;;;;;;7.85;3.20;;;;;;;18.88;69.62;100956.03;5077863;28;20050;-72
2022/05/11 00:19:39;;;;;;;12.05;3.58;;;;;;;18.86;70.37;100958.50;5076681;28;20052;-72
2022/05/11 00:22:06;;;;;;;9.25;3.10;;;;;;;18.83;70.40;100950.97;5076899;28;20048;-72
2022/05/11 00:24:33;;;;;;;7.07;3.03;;;;;;;18.81;70.43;100947.06;5068401;28;20441;-72
2022/05/11 00:27:01;;;;;;;5.47;2.78;;;;;;;18.77;71.04;100946.38;5074293;28;20456;-72
2022/05/11 00:29:30;;;;;;;9.13;3.55;;;;;;;18.74;71.68;100944.47;5081125;28;20143;-72
2022/05/11 00:31:57;;;;;;;8.95;3.40;;;;;;;18.73;71.32;100942.91;5071326;28;20117;-72
2022/05/11 00:34:23;;;;;;;8.90;3.25;;;;;;;18.73;71.30;100942.91;5076480;28;20131;-73
2022/05/11 00:36:50;;;;;;;10.93;3.58;;;;;;;18.73;71.06;100931.69;5072136;28;20521;-72
2022/05/11 00:39:16;;;;;;;6.97;3.42;;;;;;;18.78;70.28;100931.13;5079391;28;20056;-72
2022/05/11 00:41:43;;;;;;;9.10;3.38;;;;;;;18.74;70.07;100924.84;5082712;28;20135;-73
2022/05/11 00:44:09;;;;;;;10.70;3.30;;;;;;;18.73;69.58;100917.69;5075769;28;20097;-72
2022/05/11 00:46:59;;;;;;;9.50;3.72;;;;;;;18.68;70.18;100907.81;5080784;28;20159;-73
2022/05/11 00:49:39;;;;;;;11.95;4.05;;;;;;;18.76;72.35;100911.19;5079126;28;20131;-73
2022/05/11 00:52:22;;;;;;;7.47;3.53;;;;;;;18.81;75.16;100910.59;5075862;28;20831;-73
2022/05/11 00:54:52;;;;;;;7.95;3.30;;;;;;;18.84;73.45;100913.31;5079434;28;20056;-73
2022/05/11 00:57:25;;;;;;;10.88;3.50;;;;;;;18.85;73.00;100912.06;5078054;28;20040;-73
2022/05/11 00:59:53;;;;;;;9.02;3.83;;;;;;;18.89;73.09;100904.31;5082309;28;20063;-73
2022/05/11 01:02:22;;;;;;;8.27;2.92;;;;;;;18.85;72.78;100902.88;5073706;28;20826;-73
2022/05/11 01:04:53;;;;;;;8.45;3.13;;;;;;;18.78;71.38;100901.09;5076976;28;20084;-73
2022/05/11 01:07:20;;;;;;;9.60;3.05;;;;;;;18.75;71.23;100898.38;5077667;28;20040;-74
2022/05/11 01:09:46;;;;;;;10.82;4.00;;;;;;;18.76;71.16;100895.13;5085590;28;20048;-73
2022/05/11 01:12:17;;;;;;;7.78;3.30;;;;;;;18.77;70.91;100898.72;5075331;28;20051;-72
2022/05/11 01:14:49;;;;;;;6.43;3.05;;;;;;;18.71;71.42;100890.09;5071865;28;20056;-74
2022/05/11 01:17:18;;;;;;;10.40;3.28;;;;;;;18.69;70.96;100894.59;5082746;28;20469;-73
2022/05/11 01:19:47;;;;;;;10.05;3.42;;;;;;;18.70;70.52;100885.72;5075853;28;20139;-72
2022/05/11 01:22:40;;;;;;;7.57;3.13;;;;;;;18.68;70.69;100881.78;5075053;28;20174;-73
2022/05/11 01:25:09;;;;;;;10.10;3.28;;;;;;;18.73;70.42;100884.81;5075994;28;20172;-74
2022/05/11 01:27:42;;;;;;;7.38;2.80;;;;;;;18.73;70.00;100878.44;5074564;28;20471;-72
2022/05/11 01:30:21;;;;;;;9.25;3.08;;;;;;;18.69;69.01;100877.78;5073841;28;20512;-72
2022/05/11 01:32:51;;;;;;;9.73;2.95;;;;;;;18.68;68.43;100876.97;5072745;28;20063;-74
2022/05/11 01:35:46;;;;;;;7.30;2.92;;;;;;;18.65;69.10;100872.25;5078887;28;20048;-73
2022/05/11 01:38:21;;;;;;;8.93;3.00;;;;;;;18.62;69.12;100859.16;5077496;28;20338;-73
2022/05/11 01:40:48;;;;;;;12.55;3.50;;;;;;;18.63;69.17;100865.56;5077625;28;20054;-72
2022/05/11 01:43:24;;;;;;;7.60;3.17;;;;;;;18.61;69.46;100865.19;5082064;28;20139;-74
2022/05/11 01:45:50;;;;;;;9.05;3.38;;;;;;;18.55;70.15;100859.38;5082415;28;20143;-74
2022/05/11 01:48:17;;;;;;;7.57;2.97;;;;;;;18.60;69.30;100864.44;5080650;28;20079;-73
2022/05/11 01:50:44;;;;;;;9.05;3.55;;;;;;;18.60;69.09;100852.44;5070115;28;20059;-73
2022/05/11 01:53:11;;;;;;;4.95;2.75;;;;;;;18.57;69.78;100854.13;5083939;28;20043;-74
2022/05/11 01:55:38;;;;;;;11.20;3.47;;;;;;;18.56;69.68;100841.31;5076221;28;20049;-73
2022/05/11 01:58:09;;;;;;;6.50;2.63;;;;;;;18.52;69.76;100843.44;5076667;28;20481;-72
2022/05/11 02:00:37;;;;;;;6.15;3.20;;;;;;;18.52;69.59;100840.66;5077632;28;20070;-73
2022/05/11 02:03:04;;;;;;;7.50;3.03;;;;;;;18.43;70.21;100840.56;5074371;28;20055;-74
2022/05/11 02:08:16;;;;;;;12.05;3.60;;;;;;;18.39;70.40;100839.09;5096016;28;20106;-72
2022/05/11 02:10:43;;;;;;;9.25;3.30;;;;;;;18.35;70.13;100832.78;5073451;28;20048;-73
2022/05/11 02:13:10;;;;;;;9.57;4.35;;;;;;;18.38;70.11;100841.09;5077500;28;20048;-74
2022/05/11 02:15:37;;;;;;;11.40;3.50;;;;;;;18.40;69.84;100838.66;5085353;28;20048;-73
2022/05/11 02:18:04;;;;;;;8.73;3.30;;;;;;;18.40;69.29;100833.03;5088272;28;20048;-73
2022/05/11 02:20:31;;;;;;;9.65;3.53;;;;;;;18.40;70.42;100830.25;5077060;28;20107;-73
2022/05/11 02:22:58;;;;;;;7.85;3.40;;;;;;;18.38;70.37;100835.50;5087606;28;20535;-73
2022/05/11 02:25:25;;;;;;;7.90;3.47;;;;;;;18.30;70.87;100828.53;5069995;28;20056;-73
2022/05/11 02:27:52;;;;;;;9.38;3.55;;;;;;;18.27;70.62;100825.81;5075861;28;20136;-75
2022/05/11 02:30:25;;;;;;;8.45;3.33;;;;;;;18.24;71.09;100824.69;5083988;28;20170;-74
2022/05/11 02:32:52;;;;;;;11.30;3.45;;;;;;;18.22;71.10;100821.56;5083143;28;20071;-73
2022/05/11 02:35:19;;;;;;;9.10;3.33;;;;;;;18.23;71.87;100823.16;5070498;28;20063;-73
2022/05/11 02:37:50;;;;;;;7.78;3.17;;;;;;;18.19;72.52;100818.88;5069437;28;20135;-73
2022/05/11 02:40:20;;;;;;;9.32;3.28;;;;;;;18.18;71.92;100814.47;5076919;28;20078;-72
2022/05/11 02:42:46;;;;;;;7.00;3.13;;;;;;;18.18;72.24;100808.88;5080589;28;20048;-73
2022/05/11 02:45:14;;;;;;;10.23;3.85;;;;;;;18.17;72.10;100813.72;5081295;28;20062;-73
2022/05/11 02:47:42;;;;;;;7.70;3.65;;;;;;;18.17;72.41;100815.72;5076313;28;20055;-73
2022/05/11 02:50:10;;;;;;;8.18;3.28;;;;;;;18.14;72.63;100808.22;5069309;28;20524;-73
2022/05/11 02:52:36;;;;;;;9.77;3.45;;;;;;;18.16;71.86;100802.97;5082816;28;20543;-73
2022/05/11 02:55:03;;;;;;;7.38;3.17;;;;;;;18.11;72.44;100807.09;5085751;28;20131;-74
2022/05/11 02:57:30;;;;;;;9.32;3.78;;;;;;;18.08;72.62;100807.22;5076339;28;20734;-73
2022/05/11 03:00:00;;;;;;;10.05;3.67;;;;;;;18.06;73.57;100807.66;5075370;28;20109;-73
2022/05/11 03:02:27;;;;;;;11.07;3.85;;;;;;;18.05;72.77;100806.06;5074281;28;20084;-74
2022/05/11 03:04:54;;;;;;;9.25;3.72;;;;;;;18.07;73.39;100814.03;5076412;28;21031;-72
2022/05/11 03:07:20;;;;;;;9.45;3.97;;;;;;;18.02;73.58;100809.00;5082074;28;20490;-73
2022/05/11 03:09:47;;;;;;;10.50;3.70;;;;;;;17.98;73.60;100795.09;5078142;28;20051;-73
2022/05/11 03:12:13;;;;;;;9.15;3.90;;;;;;;17.96;74.76;100791.97;5077243;28;20049;-73
2022/05/11 03:14:41;;;;;;;6.25;3.40;;;;;;;17.90;74.76;100788.16;5077421;28;21187;-73
2022/05/11 03:17:08;;;;;;;10.90;4.18;;;;;;;17.91;74.56;100795.31;5078613;28;20055;-73
2022/05/11 03:19:34;;;;;;;9.38;3.92;;;;;;;17.87;74.67;100778.63;5082232;28;20056;-73
2022/05/11 03:22:01;;;;;;;7.90;3.60;;;;;;;17.93;74.42;100787.25;5072465;28;20044;-73
2022/05/11 03:24:27;;;;;;;12.43;3.83;;;;;;;17.98;74.40;100785.94;5075121;28;20056;-73
2022/05/11 03:26:54;;;;;;;9.73;4.20;;;;;;;18.01;73.94;100777.41;5083643;28;20044;-73
2022/05/11 03:29:20;;;;;;;8.40;3.50;;;;;;;18.05;73.48;100778.06;5073785;28;20049;-73
2022/05/11 03:34:36;;;;;;;;;;;;;;;18.12;75.67;100775.06;5073027;28;20436;-74
2022/05/11 03:37:09;;;;;;;11.32;4.32;;;;;;;18.14;74.88;100769.00;5069335;28;19927;-73
2022/05/11 03:39:36;;;;;;;9.48;4.07;;;;;;;18.14;75.82;100764.22;5070073;28;20124;-73
2022/05/11 03:42:07;;;;;;;13.73;3.85;;;;;;;18.13;76.51;100762.66;5072143;28;20855;-74
2022/05/11 03:44:34;;;;;;;9.45;3.83;;;;;;;18.15;76.93;100760.16;5079526;28;20079;-73
2022/05/11 03:47:00;;;;;;;8.35;3.72;;;;;;;18.16;77.41;100763.75;5075579;28;20054;-73
2022/05/11 03:49:27;;;;;;;11.40;3.80;;;;;;;18.14;77.50;100757.81;5068873;28;20079;-73
2022/05/11 03:51:54;;;;;;;8.25;3.95;;;;;;;18.11;76.93;100753.09;5080503;28;20052;-75
2022/05/11 03:54:21;;;;;;;13.35;3.83;;;;;;;18.09;78.34;100750.75;5082561;28;20045;-72
2022/05/11 03:56:47;;;;;;;11.75;5.07;;;;;;;18.09;78.69;100753.53;5086029;28;20424;-75
2022/05/11 03:59:14;;;;;;;9.38;3.78;;;;;;;18.07;78.32;100747.63;5081799;28;20048;-73
2022/05/11 04:01:40;;;;;;;11.02;3.83;;;;;;;18.11;78.71;100742.69;5077862;28;20090;-73
2022/05/11 04:04:07;;;;;;;13.10;4.72;;;;;;;18.11;80.12;100753.91;5080351;28;20048;-73
2022/05/11 04:06:34;;;;;;;12.98;3.55;;;;;;;18.09;79.30;100747.19;5068350;28;20067;-73
2022/05/11 04:09:01;;;;;;;8.40;3.65;;;;;;;18.07;80.07;100750.44;5079632;28;20048;-73
2022/05/11 04:11:29;;;;;;;9.60;3.55;;;;;;;18.11;79.90;100756.69;5068805;28;20143;-74
2022/05/11 04:13:56;;;;;;;12.23;3.97;;;;;;;18.10;80.39;100751.53;5071164;28;20135;-73
2022/05/11 04:16:24;;;;;;;7.78;3.67;;;;;;;18.13;80.20;100757.03;5078814;28;20745;-73
2022/05/11 04:18:50;;;;;;;15.38;4.72;;;;;;;18.14;78.45;100758.59;5085540;28;20040;-76
2022/05/11 04:21:17;;;;;;;9.25;4.03;;;;;;;18.21;77.31;100760.38;5083928;28;20079;-73
2022/05/11 04:23:43;;;;;;;11.80;3.90;;;;;;;18.21;78.47;100766.78;5067918;28;20135;-72
2022/05/11 04:26:12;;;;;;;11.18;3.97;;;;;;;18.23;79.26;100761.53;5073890;28;20044;-72
2022/05/11 04:28:43;;;;;;;14.27;4.60;;;;;;;18.26;78.46;100757.03;5077935;28;20741;-72
2022/05/11 04:31:12;;;;;;;10.85;4.13;;;;;;;18.28;79.18;100758.16;5073650;28;20056;-72
2022/05/11 04:33:39;;;;;;;11.35;4.07;;;;;;;18.28;78.82;100758.16;5070575;28;20056;-73
2022/05/11 04:36:06;;;;;;;8.55;3.58;;;;;;;18.29;79.58;100758.94;5084022;28;20044;-72
2022/05/11 04:38:33;;;;;;;13.10;3.80;;;;;;;18.29;79.53;100751.31;5085652;28;20056;-73
2022/05/11 04:41:00;;;;;;;9.43;3.90;;;;;;;18.30;79.28;100744.50;5078465;28;20158;-72
2022/05/11 04:43:27;;;;;;;10.95;4.03;;;;;;;18.36;80.23;100750.34;5073890;28;20131;-72
2022/05/11 04:45:55;;;;;;;11.80;3.95;;;;;;;18.37;79.95;100738.69;5078744;28;20054;-73
2022/05/11 04:48:22;;;;;;;11.05;3.97;;;;;;;18.37;78.74;100735.88;5078846;28;20067;-74
2022/05/11 04:50:48;;;;;;;11.43;3.90;;;;;;;18.34;77.18;100738.75;5076188;28;20139;-74
2022/05/11 04:53:17;;;;;;;9.88;3.80;;;;;;;18.34;77.01;100733.97;5082167;28;20058;-73
2022/05/11 04:55:47;;;;;;;9.73;4.03;;;;;;;18.29;76.08;100737.31;5083162;28;20504;-73
2022/05/11 04:58:14;;;;;;;15.43;5.97;;;;;;;18.27;75.82;100734.19;5068308;28;20266;-74
2022/05/11 05:00:41;;;;;;;10.82;3.95;;;;;;;18.28;76.63;100738.56;5075037;28;20253;-73
2022/05/11 05:03:10;;;;;;;13.32;4.43;;;;;;;18.28;77.00;100735.75;5075565;28;20523;-74
2022/05/11 05:05:38;;;;;;;17.02;4.47;;;;;;;18.28;78.15;100730.16;5076215;28;20098;-73
2022/05/11 05:08:05;;;;;;;9.48;4.28;;;;;;;18.27;79.70;100725.00;5086035;28;20154;-73
2022/05/11 05:10:32;;;;;;;15.38;5.68;;;;;;;18.25;80.38;100731.03;5073078;28;20530;-73
2022/05/11 05:13:04;;;;;;;11.57;4.30;;;;;;;18.29;80.82;100726.09;5079677;28;20070;-74
2022/05/11 05:15:31;;;;;;;18.10;5.22;;;;;;;18.33;80.78;100723.19;5070859;28;20087;-73
2022/05/11 05:18:01;;;;;;;12.25;4.25;;;;;;;18.37;80.07;100719.09;5067526;28;20052;-74
2022/05/11 05:20:27;;;;;;;13.35;4.32;;;;;;;18.42;78.39;100723.34;5080415;28;20051;-73
2022/05/11 05:22:54;;;;;;;14.10;4.15;;;;;;;18.44;78.36;100718.84;5074117;28;20136;-73
2022/05/11 05:25:20;;;;;;;11.95;4.35;;;;;;;18.48;76.95;100727.91;5071613;28;20128;-73
2022/05/11 05:27:49;;;;;;;9.48;4.35;;;;;;;18.53;75.52;100718.94;5071686;28;20045;-74
2022/05/11 05:33:03;;;;;;;9.80;4.22;;;;;;;18.54;72.02;100726.13;5067280;28;20071;-73
2022/05/11 05:35:30;;;;;;;9.40;3.90;;;;;;;18.66;73.14;100730.91;5082182;28;20162;-74
2022/05/11 05:37:57;;;;;;;8.32;3.40;;;;;;;18.73;71.68;100736.25;5071097;28;20674;-75
2022/05/11 05:40:23;;;;;;;16.00;4.03;;;;;;;18.80;71.38;100735.25;5083158;28;20048;-74
2022/05/11 05:42:50;;;;;;;8.98;4.07;;;;;;;18.84;70.96;100736.69;5069044;28;20131;-74
2022/05/11 05:45:16;;;;;;;11.77;4.15;;;;;;;18.91;70.88;100738.47;5076761;28;20044;-73
2022/05/11 05:47:43;;;;;;;12.18;4.22;;;;;;;18.96;70.21;100741.47;5069396;28;20127;-73
2022/05/11 05:50:10;;;;;;;14.93;4.32;;;;;;;18.97;69.73;100740.22;5068852;28;20059;-73
2022/05/11 05:52:37;;;;;;;12.40;5.00;;;;;;;19.02;70.32;100733.25;5080257;28;20121;-73
2022/05/11 05:55:04;;;;;;;12.48;4.45;;;;;;;19.05;70.21;100726.75;5081467;28;20074;-74
2022/05/11 05:57:31;;;;;;;14.70;5.70;;;;;;;19.09;71.19;100735.81;5072863;28;20057;-75
2022/05/11 06:00:00;;;;;;;12.43;4.20;;;;;;;19.07;70.78;100733.47;5073864;28;20075;-74
2022/05/11 06:02:26;;;;;;;11.73;4.00;;;;;;;19.00;70.73;100736.50;5074410;28;20066;-74
2022/05/11 06:04:53;;;;;;;12.98;4.80;;;;;;;18.99;70.48;100734.16;5079883;28;20463;-74
2022/05/11 06:07:21;;;;;;;12.43;4.05;;;;;;;18.98;70.51;100730.59;5072588;28;20060;-74
2022/05/11 06:09:48;;;;;;;15.93;4.93;;;;;;;19.04;70.50;100736.41;5088728;28;20549;-73
2022/05/11 06:12:15;;;;;;;11.88;4.55;;;;;;;19.12;70.41;100724.47;5073789;28;20532;-73
2022/05/11 06:14:43;;;;;;;13.13;4.53;;;;;;;19.20;69.20;100734.19;5079264;28;20178;-75
2022/05/11 06:17:15;;;;;;;13.73;4.45;;;;;;;19.31;67.60;100731.81;5084924;28;20198;-75
2022/05/11 06:19:42;;;;;;;8.07;2.78;;;;;;;19.37;66.60;100734.84;5081390;28;20048;-75
2022/05/11 06:22:09;;;;;;;10.10;3.58;;;;;;;19.42;65.75;100725.81;5081629;28;20053;-74
2022/05/11 06:24:35;;;;;;;16.48;5.35;;;;;;;19.44;65.20;100724.13;5079777;28;20135;-74
2022/05/11 06:27:03;;;;;;;12.98;3.80;;;;;;;19.60;65.57;100729.53;5083791;28;20130;-74
2022/05/11 06:29:30;;;;;;;13.65;3.80;;;;;;;19.68;64.67;100719.59;5076706;28;20056;-74
2022/05/11 06:31:56;;;;;;;14.38;4.28;;;;;;;19.77;65.08;100719.66;5079717;28;20135;-74
2022/05/11 06:34:24;;;;;;;10.98;4.07;;;;;;;19.89;64.82;100723.59;5088279;28;20048;-74
2022/05/11 06:36:51;;;;;;;6.40;2.42;;;;;;;19.84;61.17;100721.38;5088156;28;20055;-74
2022/05/11 06:39:18;;;;;;;11.18;4.63;;;;;;;20.01;62.28;100719.91;5085292;28;20075;-75
2022/05/11 06:41:45;;;;;;;13.13;4.20;;;;;;;20.11;62.48;100715.91;5078949;28;20143;-75
2022/05/11 06:44:11;;;;;;;9.57;3.38;;;;;;;20.22;62.21;100719.88;5081589;28;20063;-73
2022/05/11 06:46:38;;;;;;;15.32;3.28;;;;;;;20.23;61.09;100715.84;5088607;28;20131;-74
2022/05/11 06:49:04;;;;;;;12.65;3.63;;;;;;;20.32;60.06;100718.66;5081213;28;20043;-74
2022/05/11 06:51:31;;;;;;;15.68;4.93;;;;;;;20.47;58.79;100713.22;5080637;28;20147;-75
2022/05/11 06:59:33;;;;;;;11.93;5.10;;;;;;;20.74;59.46;100720.94;5074403;28;20055;-75
2022/05/11 07:02:03;;;;;;;9.07;3.03;;;;;;;20.77;59.38;100715.16;5074489;28;20056;-73
2022/05/11 07:04:33;;;;;;;12.15;3.33;;;;;;;20.85;59.47;100724.84;5084786;28;20119;-74
2022/05/11 07:07:00;;;;;;;8.30;3.53;;;;;;;20.86;60.15;100729.25;5079639;28;20056;-73
2022/05/11 07:09:32;;;;;;;8.02;3.45;;;;;;;20.87;58.87;100718.75;5080523;28;20056;-72
2022/05/11 07:14:53;;;;;;;5.32;1.98;;;;;;;21.00;60.19;100716.63;5084320;28;20043;-75
2022/05/11 07:17:33;;;;;;;10.60;4.50;;;;;;;20.77;60.11;100732.03;5097652;28;20048;-72
2022/05/11 07:20:06;;;;;;;12.18;3.63;;;;;;;20.87;60.47;100724.38;5085870;28;20048;-74
2022/05/11 07:22:34;;;;;;;10.38;4.78;;;;;;;20.86;61.18;100722.84;5075849;28;20554;-75
2022/05/11 07:25:01;;;;;;;19.02;5.85;;;;;;;21.05;61.71;100728.03;5080108;28;20047;-73
2022/05/11 07:27:27;;;;;;;17.40;7.45;;;;;;;21.12;60.22;100712.88;5080892;28;20476;-73
2022/05/11 07:29:54;;;;;;;12.82;4.45;;;;;;;20.98;59.90;100721.91;5081920;28;20060;-72
2022/05/11 07:32:23;;;;;;;17.63;7.00;;;;;;;21.17;59.49;100715.06;5083843;28;20050;-72
2022/05/11 07:34:50;;;;;;;21.83;8.30;;;;;;;21.20;58.87;100705.69;5087151;28;20505;-74
2022/05/11 07:37:17;;;;;;;9.30;3.70;;;;;;;21.01;59.94;100712.53;5079903;28;20122;-72
2022/05/11 07:39:44;;;;;;;15.20;5.75;;;;;;;20.97;60.08;100707.09;5082785;28;20117;-75
2022/05/11 07:42:12;;;;;;;10.65;4.05;;;;;;;21.06;59.75;100709.88;5068832;28;20058;-72
2022/05/11 07:44:39;;;;;;;18.05;6.03;;;;;;;21.21;59.55;100710.03;5069124;28;20406;-74
2022/05/11 07:47:06;;;;;;;11.80;5.60;;;;;;;21.29;59.21;100717.69;5086864;28;20055;-72
2022/05/11 07:49:33;;;;;;;10.20;2.60;;;;;;;21.32;59.16;100711.13;5068829;28;20075;-73
2022/05/11 07:51:59;;;;;;;12.82;5.07;;;;;;;21.47;58.03;100709.25;5082987;28;20135;-75
2022/05/11 07:54:26;;;;;;;9.30;4.43;;;;;;;21.51;56.45;100715.50;5078138;28;20049;-73
2022/05/11 07:59:56;;;;;;;14.93;5.13;;;;;;;21.67;56.39;100715.13;5079905;28;20429;-72
2022/05/11 08:02:28;;;;;;;15.70;4.50;;;;;;;21.80;56.09;100715.00;5075152;28;20158;-74
2022/05/11 08:04:57;;;;;;;8.75;3.60;;;;;;;21.79;54.62;100721.84;5084816;28;20745;-73
2022/05/11 08:07:34;;;;;;;13.60;4.05;;;;;;;21.85;54.80;100708.69;5082276;28;20079;-73
2022/05/11 08:10:14;;;;;;;9.07;3.30;;;;;;;21.87;54.42;100717.47;5087708;28;20097;-72
2022/05/11 08:12:41;;;;;;;9.02;2.75;;;;;;;21.85;53.54;100705.88;5080893;28;20083;-72
2022/05/11 08:15:08;;;;;;;12.65;3.20;;;;;;;21.89;53.44;100706.50;5082111;28;20052;-75
2022/05/11 08:17:35;;;;;;;4.45;1.63;;;;;;;21.64;52.53;100704.84;5074453;28;20080;-72
2022/05/11 08:20:08;;;;;;;5.30;2.17;;;;;;;21.76;52.74;100706.69;5067401;28;20511;-74
2022/05/11 08:22:36;;;;;;;2.65;1.65;;;;;;;21.71;52.69;100703.72;5076168;28;20051;-70
2022/05/11 08:25:03;;;;;;;2.78;1.25;;;;;;;21.72;52.84;100706.09;5076749;28;20052;-73
2022/05/11 08:27:29;;;;;;;9.10;2.15;;;;;;;21.76;53.25;100706.69;5082329;28;20470;-74
2022/05/11 08:36:00;;;;;;;3.08;1.35;;;;;;;21.94;52.38;100705.84;5083691;28;20059;-75
2022/05/11 08:38:30;;;;;;;1.98;0.95;;;;;;;21.98;52.90;100712.91;5085115;28;20131;-73
2022/05/11 08:41:06;;;;;;;4.13;1.90;;;;;;;22.06;52.57;100702.84;5071400;28;20151;-74
2022/05/11 08:43:35;;;;;;;5.05;2.25;;;;;;;22.19;52.82;100697.75;5084881;28;20459;-74
2022/05/11 08:46:03;;;;;;;5.65;2.60;;;;;;;22.17;52.89;100699.50;5071830;28;20142;-72
2022/05/11 08:48:47;;;;;;;3.42;2.03;;;;;;;22.10;53.00;100703.44;5082934;28;20055;-73
2022/05/11 08:51:26;;;;;;;7.93;1.65;;;;;;;22.19;52.64;100708.25;5068558;28;20062;-73
2022/05/11 08:54:06;;;;;;;5.47;1.67;;;;;;;22.22;53.10;100710.13;5082251;28;20123;-74
2022/05/11 08:56:34;;;;;;;9.27;3.05;;;;;;;22.48;52.45;100694.31;5087142;28;20121;-74
2022/05/11 08:59:01;;;;;;;6.18;3.03;;;;;;;22.59;52.89;100700.22;5071105;28;20071;-74
2022/05/11 09:01:40;;;;;;;6.50;2.83;;;;;;;22.51;51.79;100696.22;5080440;28;20125;-74
2022/05/11 09:04:09;;;;;;;3.75;1.58;;;;;;;22.58;51.57;100696.63;5076442;28;20117;-74
2022/05/11 09:06:37;;;;;;;9.85;2.58;;;;;;;22.35;51.35;100685.31;5077716;28;20056;-73
2022/05/11 09:09:04;;;;;;;5.22;2.00;;;;;;;22.46;51.66;100694.00;5081594;28;20478;-73
2022/05/11 09:11:41;;;;;;;8.13;2.67;;;;;;;22.70;51.54;100687.16;5067643;28;20056;-74
2022/05/11 09:14:13;;;;;;;7.35;2.92;;;;;;;22.90;52.29;100689.34;5074247;28;20044;-75
2022/05/11 09:16:45;;;;;;;9.77;3.38;;;;;;;23.01;50.84;100695.19;5076741;28;20072;-74
2022/05/11 09:19:12;;;;;;;6.75;2.70;;;;;;;23.14;50.55;100678.78;5066020;28;20135;-73
2022/05/11 09:21:47;;;;;;;11.68;3.13;;;;;;;23.25;50.07;100690.31;5077870;28;20055;-73
2022/05/11 09:24:25;;;;;;;8.00;2.30;;;;;;;23.08;49.85;100691.25;5070738;28;20052;-74
2022/05/11 09:27:10;;;;;;;5.40;2.90;;;;;;;23.25;49.71;100687.47;5080934;28;20048;-73
2022/05/11 09:29:42;;;;;;;6.22;2.72;;;;;;;22.97;49.50;100725.66;5082025;28;20048;-73
2022/05/11 09:32:21;;;;;;;4.55;2.47;;;;;;;22.96;49.52;100684.59;5083672;28;20553;-74
2022/05/11 09:34:48;;;;;;;5.45;2.30;;;;;;;23.11;49.63;100685.38;5077247;28;20135;-71
2022/05/11 09:37:50;;;;;;;7.55;2.88;;;;;;;23.25;49.38;100681.84;5089570;28;20079;-72
2022/05/11 09:40:21;;;;;;;12.43;3.83;;;;;;;23.33;48.80;100674.56;5067609;28;20055;-72
2022/05/11 09:43:11;;;;;;;4.68;2.22;;;;;;;23.33;49.20;100691.50;5085467;28;20051;-72
2022/05/11 09:45:47;;;;;;;7.03;2.45;;;;;;;23.12;48.98;100681.31;5084232;28;20062;-72
2022/05/11 09:48:31;;;;;;;12.48;3.45;;;;;;;23.31;49.39;100677.09;5082076;28;20055;-72
2022/05/11 09:51:19;;;;;;;6.65;2.63;;;;;;;23.40;48.99;100676.22;5080243;28;20075;-74
2022/05/11 09:53:55;;;;;;;4.18;1.73;;;;;;;23.33;48.80;100676.59;5086038;28;20664;-71
2022/05/11 09:56:46;;;;;;;13.57;3.10;;;;;;;23.44;48.47;100680.41;5082409;28;20055;-73
2022/05/11 09:59:31;;;;;;;10.35;4.05;;;;;;;23.68;48.34;100669.78;5084785;28;20044;-73
2022/05/11 10:02:18;;;;;;;6.55;2.10;;;;;;;23.55;47.69;100677.00;5076384;28;20583;-73
2022/05/11 10:04:52;;;;;;;7.88;2.80;;;;;;;23.72;48.93;100673.19;5075799;28;20056;-74
2022/05/11 10:07:19;;;;;;;9.47;3.20;;;;;;;23.89;48.54;100674.22;5070718;28;20138;-74
2022/05/11 10:10:00;;;;;;;6.55;3.05;;;;;;;23.90;47.88;100686.31;5069273;28;20714;-76
2022/05/11 10:12:31;;;;;;;2.97;1.85;;;;;;;23.97;47.58;100666.16;5068809;28;21829;-74
2022/05/11 10:24:10;;;;;;;4.90;2.13;;;;;;;24.29;46.82;100650.97;5084733;28;20550;-72
2022/05/11 10:26:49;;;;;;;4.00;1.67;;;;;;;24.11;46.97;100652.00;5081414;28;20066;-74
2022/05/11 10:29:46;;;;;;;8.40;2.65;;;;;;;24.23;46.89;100662.19;5081700;28;20043;-73
2022/05/11 10:32:22;;;;;;;9.30;3.22;;;;;;;24.03;46.70;100662.16;5077064;28;20212;-74
2022/05/11 10:35:06;;;;;;;8.70;3.13;;;;;;;24.28;46.60;100641.72;5077648;28;20056;-74
2022/05/11 10:37:32;;;;;;;13.23;3.95;;;;;;;24.57;46.83;100638.75;5077411;28;20314;-74
2022/05/11 10:40:20;;;;;;;10.77;3.95;;;;;;;24.78;45.89;100631.81;5074759;28;20127;-72
2022/05/11 10:43:26;;;;;;;9.32;3.47;;;;;;;24.54;45.17;100648.22;5078406;28;20055;-72
2022/05/11 10:46:18;;;;;;;5.68;1.48;;;;;;;24.25;45.58;100636.25;5075975;28;20055;-72
2022/05/11 10:48:57;;;;;;;11.25;3.58;;;;;;;24.65;45.51;100637.09;5072374;28;20040;-73
2022/05/11 10:51:43;;;;;;;9.32;3.45;;;;;;;24.92;45.27;100628.16;5081865;28;20056;-73
2022/05/11 10:54:33;;;;;;;12.05;2.88;;;;;;;25.15;44.89;100621.44;5074671;28;20132;-75
2022/05/11 10:57:06;;;;;;;8.48;3.42;;;;;;;25.46;45.06;100623.56;5076384;28;20126;-74
2022/05/11 10:59:55;;;;;;;9.35;4.13;;;;;;;25.35;43.35;100636.84;5079523;28;20090;-73
2022/05/11 11:02:37;;;;;;;10.25;3.97;;;;;;;25.38;43.97;100625.31;5081837;28;20139;-71
2022/05/11 11:05:25;;;;;;;5.97;1.98;;;;;;;25.31;43.31;100636.28;5077808;28;20729;-69
2022/05/11 11:08:00;;;;;;;5.20;2.25;;;;;;;25.42;43.46;100620.19;5079669;28;20048;-74
2022/05/11 11:10:38;;;;;;;8.27;2.72;;;;;;;25.29;42.98;100621.81;5070084;28;20048;-74
2022/05/11 11:13:37;;;;;;;7.90;2.40;;;;;;;25.65;42.83;100621.13;5067767;28;20649;-75
2022/05/11 11:16:07;;;;;;;8.25;2.80;;;;;;;25.85;42.86;100612.53;5081656;28;20101;-74
2022/05/11 11:18:41;;;;;;;6.10;2.83;;;;;;;25.67;42.66;100607.22;5074438;28;20067;-73
2022/05/11 11:21:10;;;;;;;7.50;2.00;;;;;;;25.82;43.24;100605.03;5086384;28;20156;-72
2022/05/11 11:23:40;;;;;;;10.55;3.50;;;;;;;26.15;42.57;100608.13;5072816;28;20094;-72
2022/05/11 11:26:12;;;;;;;5.78;2.20;;;;;;;25.98;42.40;100607.25;5078854;28;20068;-72
2022/05/11 11:28:41;;;;;;;2.85;1.63;;;;;;;26.00;42.19;100613.97;5071290;28;20044;-73
2022/05/11 11:31:12;;;;;;;7.70;2.67;;;;;;;25.98;41.65;100596.66;5068139;28;20194;-74
2022/05/11 11:34:09;;;;;;;9.77;4.00;;;;;;;26.02;41.25;100593.59;5071337;28;20063;-75
2022/05/11 11:36:40;;;;;;;13.73;2.95;;;;;;;26.39;41.09;100591.50;5066544;28;20048;-73
2022/05/11 11:39:14;;;;;;;9.75;3.03;;;;;;;26.14;40.59;100589.53;5069257;28;20134;-74
2022/05/11 11:41:41;;;;;;;15.83;3.10;;;;;;;26.64;40.75;100611.22;5065895;28;20787;-74
2022/05/11 11:44:31;;;;;;;5.45;2.17;;;;;;;26.41;38.63;100586.06;5067534;28;20140;-73
2022/05/11 11:46:59;;;;;;;9.98;2.40;;;;;;;26.56;39.02;100578.16;5067154;28;20072;-72
2022/05/11 11:49:28;;;;;;;6.97;2.90;;;;;;;26.12;39.86;100583.63;5070308;28;20053;-74
2022/05/11 11:52:04;;;;;;;6.75;2.13;;;;;;;26.38;39.86;100576.50;5077688;28;20139;-75
2022/05/11 11:54:47;;;;;;;8.20;2.60;;;;;;;26.72;39.43;100583.09;5083014;28;20058;-74
2022/05/11 11:57:22;;;;;;;12.43;4.03;;;;;;;26.84;38.88;100582.66;5078131;28;20056;-73
2022/05/11 11:59:52;;;;;;;12.60;3.05;;;;;;;26.85;38.47;100570.00;5074557;28;20065;-73
2022/05/11 12:02:40;;;;;;;9.77;3.50;;;;;;;27.43;38.68;100571.88;5082980;28;20504;-74
2022/05/11 12:05:11;;;;;;;9.77;3.22;;;;;;;27.33;36.86;100581.97;5078668;28;20044;-73
2022/05/11 12:16:20;;;;;;;11.95;2.00;;;;;;;27.12;34.50;100572.09;5076835;28;20052;-73
2022/05/11 12:18:47;;;;;;;4.20;1.27;;;;;;;27.63;33.54;100556.63;5082483;28;20048;-73
2022/05/11 12:21:32;;;;;;;6.07;1.80;;;;;;;27.78;33.60;100559.19;5077374;28;20159;-75